Time;durP1;ratioP1;P1;durP2;ratioP2;P2;SDS_P1;SDS_P2;PMS_P1;PMS_P2;Temp;Humidity;BMP_temperature;BMP_pressure;BME280_temperature;BME280_humidity;BME280_pressure;Samples;Min_cycle;Max_cycle;Signal;HPM_P1;HPM_P2
2023/12/30 00:02:07;;;;;;;17.92;12.63;;;;;;;8.86;94.91;98774.22;5087467;28;20032;-69
2023/12/30 00:04:35;;;;;;;18.05;12.68;;;;;;;8.62;95.30;98770.13;5087198;28;20035;-72
2023/12/30 00:07:03;;;;;;;18.05;12.25;;;;;;;8.53;96.11;98757.13;5074684;28;20129;-71
2023/12/30 00:09:28;;;;;;;18.77;12.18;;;;;;;8.72;96.14;98766.78;5070124;28;20122;-74
2023/12/30 00:11:56;;;;;;;15.85;11.43;;;;;;;8.71;95.21;98752.19;5088726;28;20047;-69
2023/12/30 00:14:24;;;;;;;16.95;11.88;;;;;;;8.70;96.02;98759.13;5087760;28;20118;-70
2023/12/30 00:16:49;;;;;;;17.17;12.98;;;;;;;8.77;96.42;98762.03;5084455;28;20020;-72
2023/12/30 00:19:15;;;;;;;19.58;11.77;;;;;;;8.51;96.71;98766.81;5086268;28;20663;-67
2023/12/30 00:21:42;;;;;;;17.45;12.60;;;;;;;8.68;96.17;98775.75;5076468;28;20040;-68
2023/12/30 00:24:08;;;;;;;16.25;12.15;;;;;;;8.74;95.58;98768.28;5088811;28;20847;-69
2023/12/30 00:26:33;;;;;;;17.55;13.02;;;;;;;8.72;95.96;98761.59;5092996;28;20101;-69
2023/12/30 00:29:01;;;;;;;17.45;13.27;;;;;;;8.70;96.63;98761.72;5076980;28;20031;-73
2023/12/30 00:31:32;;;;;;;18.20;13.18;;;;;;;8.53;96.32;98765.72;5073772;27;20031;-72
2023/12/30 00:34:00;;;;;;;16.67;12.05;;;;;;;8.60;96.54;98766.84;5089766;28;20030;-68
2023/12/30 00:36:29;;;;;;;19.25;12.95;;;;;;;8.38;97.11;98757.44;5072099;28;20058;-71
2023/12/30 00:38:54;;;;;;;15.90;11.93;;;;;;;8.15;97.29;98730.81;5079093;28;20039;-70
2023/12/30 00:41:23;;;;;;;15.57;11.85;;;;;;;8.10;96.93;98720.00;5072859;28;20028;-68
2023/12/30 00:43:51;;;;;;;16.70;12.73;;;;;;;8.24;97.90;98753.38;5080497;28;20085;-69
2023/12/30 00:46:21;;;;;;;16.38;12.52;;;;;;;8.40;98.00;98749.53;5085732;28;20019;-68
2023/12/30 00:48:47;;;;;;;17.20;11.88;;;;;;;8.44;98.67;98754.34;5079146;28;20032;-67
2023/12/30 00:51:13;;;;;;;18.60;12.98;;;;;;;8.50;98.67;98747.81;5068399;28;20031;-69
2023/12/30 00:53:38;;;;;;;17.65;12.20;;;;;;;8.23;100.00;98709.47;5087341;28;20887;-69
2023/12/30 00:56:06;;;;;;;15.00;11.18;;;;;;;8.26;100.00;98742.88;5085666;28;20035;-70
2023/12/30 00:58:31;;;;;;;16.95;11.80;;;;;;;8.18;100.00;98745.31;5077174;27;20070;-69
2023/12/30 01:00:57;;;;;;;15.52;11.25;;;;;;;8.03;100.00;98737.00;5071008;28;20020;-69
2023/12/30 01:03:22;;;;;;;15.18;11.23;;;;;;;8.13;100.00;98753.44;5077834;28;20394;-69
2023/12/30 01:05:47;;;;;;;14.43;10.85;;;;;;;8.14;100.00;98744.72;5087636;28;20071;-71
2023/12/30 01:08:15;;;;;;;14.48;10.90;;;;;;;8.20;100.00;98738.22;5086121;28;20088;-71
2023/12/30 01:10:43;;;;;;;14.68;10.20;;;;;;;7.84;100.00;98694.47;5085345;28;20020;-73
2023/12/30 01:13:13;;;;;;;13.88;10.13;;;;;;;7.89;100.00;98710.47;5067555;28;20110;-70
2023/12/30 01:15:41;;;;;;;14.65;10.25;;;;;;;8.05;100.00;98711.81;5070775;28;20662;-67
2023/12/30 01:18:07;;;;;;;14.05;10.25;;;;;;;8.07;100.00;98690.00;5078364;28;20046;-69
2023/12/30 01:20:34;;;;;;;15.57;10.60;;;;;;;8.42;100.00;98734.69;5088785;28;20518;-70
2023/12/30 01:23:00;;;;;;;15.68;10.70;;;;;;;8.51;100.00;98738.31;5066534;27;20334;-72
2023/12/30 01:25:25;;;;;;;16.35;10.45;;;;;;;8.59;100.00;98730.69;5089612;27;20512;-70
2023/12/30 01:27:53;;;;;;;14.23;10.18;;;;;;;8.69;100.00;98733.31;5074449;28;20569;-72
2023/12/30 01:30:21;;;;;;;16.15;11.73;;;;;;;8.33;99.71;98697.38;5090305;28;20126;-70
2023/12/30 01:32:48;;;;;;;15.57;12.18;;;;;;;8.51;98.97;98733.94;5073842;28;20022;-69
2023/12/30 01:35:15;;;;;;;16.45;12.15;;;;;;;8.25;98.12;98687.66;5073430;27;21306;-68
2023/12/30 01:37:41;;;;;;;17.25;12.20;;;;;;;8.58;97.05;98734.22;5085355;28;20039;-71
2023/12/30 01:40:09;;;;;;;17.23;11.93;;;;;;;8.60;97.25;98743.53;5084893;28;20023;-71
2023/12/30 01:42:39;;;;;;;18.57;12.70;;;;;;;8.58;96.92;98747.19;5071474;28;20059;-68
2023/12/30 01:45:07;;;;;;;16.13;11.80;;;;;;;8.58;96.83;98750.63;5075641;28;20032;-68
2023/12/30 01:47:36;;;;;;;16.55;12.38;;;;;;;8.47;97.14;98758.47;5070103;28;20024;-67
2023/12/30 01:50:06;;;;;;;20.00;12.32;;;;;;;8.46;97.57;98749.03;5072248;28;20501;-70
2023/12/30 01:52:36;;;;;;;15.75;11.98;;;;;;;8.24;97.55;98696.38;5073630;28;20028;-69
2023/12/30 01:55:05;;;;;;;16.30;11.73;;;;;;;8.53;97.04;98734.63;5069958;28;20097;-69
2023/12/30 01:57:31;;;;;;;18.10;12.07;;;;;;;8.44;97.54;98754.34;5082588;28;20035;-68
2023/12/30 02:00:03;;;;;;;16.17;11.45;;;;;;;8.24;98.37;98752.56;5082724;28;20144;-70
2023/12/30 02:02:32;;;;;;;18.63;12.27;;;;;;;8.25;98.02;98747.25;5067386;28;20499;-70
2023/12/30 02:04:57;;;;;;;14.55;11.25;;;;;;;8.21;98.13;98738.09;5083174;28;20028;-69
2023/12/30 02:07:27;;;;;;;15.65;11.50;;;;;;;8.37;97.42;98745.41;5077895;28;20035;-68
2023/12/30 02:09:53;;;;;;;16.83;11.07;;;;;;;8.48;97.63;98752.31;5083797;28;20023;-74
2023/12/30 02:12:23;;;;;;;15.88;11.10;;;;;;;8.32;97.57;98739.78;5082755;28;21264;-68
2023/12/30 02:14:51;;;;;;;18.58;11.52;;;;;;;8.46;97.53;98749.03;5092134;27;20042;-69
2023/12/30 02:17:16;;;;;;;17.25;11.48;;;;;;;8.50;97.57;98747.00;5085636;28;20027;-69
2023/12/30 02:19:41;;;;;;;15.23;11.25;;;;;;;8.51;97.16;98738.31;5083651;28;20109;-70
2023/12/30 02:22:07;;;;;;;19.13;11.27;;;;;;;8.50;97.31;98745.25;5069906;28;20123;-69
2023/12/30 02:24:32;;;;;;;14.02;10.32;;;;;;;8.51;97.83;98739.13;5086932;28;20172;-70
2023/12/30 02:26:58;;;;;;;14.43;10.10;;;;;;;8.54;97.99;98738.03;5085730;28;20682;-72
2023/12/30 02:29:23;;;;;;;18.05;11.05;;;;;;;8.49;96.68;98738.44;5087130;28;20084;-68
2023/12/30 02:31:48;;;;;;;15.32;10.90;;;;;;;8.25;96.59;98697.19;5089527;28;20035;-68
2023/12/30 02:34:15;;;;;;;16.02;10.80;;;;;;;8.27;97.02;98695.31;5071585;28;20038;-71
2023/12/30 02:36:42;;;;;;;16.33;11.30;;;;;;;8.17;96.83;98735.88;5091327;28;20144;-73
2023/12/30 02:39:07;;;;;;;15.38;10.95;;;;;;;8.06;97.72;98736.75;5066036;28;20039;-68
2023/12/30 02:41:33;;;;;;;16.02;11.02;;;;;;;7.91;98.27;98736.25;5084402;28;20028;-69
2023/12/30 02:44:01;;;;;;;14.98;10.57;;;;;;;7.94;97.96;98738.59;5079702;28;20097;-68
2023/12/30 02:46:26;;;;;;;15.57;10.38;;;;;;;7.99;97.61;98736.41;5072497;28;20020;-68
2023/12/30 02:48:52;;;;;;;13.77;10.05;;;;;;;7.92;97.92;98732.69;5082007;28;20757;-67
2023/12/30 02:51:18;;;;;;;13.43;9.85;;;;;;;8.10;97.22;98740.72;5085155;28;20389;-68
2023/12/30 02:53:43;;;;;;;13.68;9.55;;;;;;;8.09;96.62;98739.91;5069130;28;20565;-70
2023/12/30 02:56:22;;;;;;;14.27;9.73;;;;;;;8.11;96.75;98750.16;5088701;28;20046;-70
2023/12/30 02:58:49;;;;;;;15.32;9.00;;;;;;;7.83;96.75;98710.13;5086089;28;20058;-70
2023/12/30 03:01:14;;;;;;;13.52;9.27;;;;;;;8.08;96.69;98756.38;5074879;28;20080;-69
2023/12/30 03:03:41;;;;;;;13.95;9.40;;;;;;;7.75;96.63;98704.78;5069512;28;20020;-70
2023/12/30 03:06:08;;;;;;;13.43;8.63;;;;;;;7.99;96.64;98748.56;5089172;28;20091;-71
2023/12/30 03:08:36;;;;;;;15.02;9.02;;;;;;;8.05;96.26;98754.06;5073201;28;20039;-71
2023/12/30 03:11:03;;;;;;;12.90;9.35;;;;;;;8.08;96.75;98746.03;5077280;28;20020;-71
2023/12/30 03:13:28;;;;;;;15.00;9.80;;;;;;;8.08;97.92;98746.03;5070088;28;20378;-72
2023/12/30 03:15:53;;;;;;;13.32;9.23;;;;;;;7.87;97.70;98708.97;5071198;28;20040;-70
2023/12/30 03:18:19;;;;;;;14.18;9.07;;;;;;;7.93;97.41;98721.41;5091455;28;20032;-70
2023/12/30 03:20:44;;;;;;;14.20;9.07;;;;;;;7.89;97.14;98751.91;5091099;28;20031;-71
2023/12/30 03:23:09;;;;;;;13.98;9.98;;;;;;;7.54;97.49;98720.25;5085647;28;20056;-72
2023/12/30 03:25:38;;;;;;;12.75;8.95;;;;;;;7.78;97.82;98743.38;5088177;28;20925;-70
2023/12/30 03:28:03;;;;;;;14.23;8.68;;;;;;;7.82;97.43;98744.75;5091373;28;20023;-71
2023/12/30 03:30:29;;;;;;;11.02;8.65;;;;;;;7.74;97.59;98732.44;5084265;28;20051;-72
2023/12/30 03:32:54;;;;;;;12.30;8.70;;;;;;;7.87;97.36;98748.63;5085200;28;20436;-67
2023/12/30 03:35:22;;;;;;;11.32;8.38;;;;;;;7.72;97.78;98746.44;5077091;28;20031;-67
2023/12/30 03:37:47;;;;;;;13.70;8.68;;;;;;;7.57;98.33;98743.31;5089018;28;20039;-70
2023/12/30 03:40:15;;;;;;;12.88;8.60;;;;;;;7.52;98.61;98741.09;5087168;28;20131;-67
2023/12/30 03:42:43;;;;;;;11.95;8.13;;;;;;;7.51;98.62;98742.84;5090430;28;20031;-69
2023/12/30 03:45:13;;;;;;;13.32;8.15;;;;;;;7.49;98.75;98743.91;5075756;28;20035;-70
2023/12/30 03:47:41;;;;;;;14.50;9.30;;;;;;;7.36;98.77;98712.22;5074619;28;20035;-72
2023/12/30 03:50:07;;;;;;;13.80;8.65;;;;;;;7.53;98.27;98732.38;5089625;28;20534;-66
2023/12/30 03:52:35;;;;;;;11.98;7.80;;;;;;;7.49;98.98;98738.75;5091739;28;20035;-72
2023/12/30 03:55:03;;;;;;;15.20;8.70;;;;;;;7.51;98.58;98727.31;5074393;28;20024;-72
2023/12/30 03:57:31;;;;;;;12.98;8.98;;;;;;;7.57;98.99;98738.94;5085493;28;20039;-69
2023/12/30 03:59:56;;;;;;;11.73;8.00;;;;;;;7.50;99.54;98741.22;5076276;28;20024;-71
2023/12/30 04:02:21;;;;;;;12.90;8.02;;;;;;;7.41;99.63;98741.94;5077260;28;20140;-68
2023/12/30 04:04:53;;;;;;;12.80;8.15;;;;;;;7.41;99.74;98744.53;5088767;28;20054;-67
2023/12/30 04:07:18;;;;;;;12.73;8.52;;;;;;;6.92;100.00;98699.25;5082170;28;20016;-67
2023/12/30 04:09:46;;;;;;;14.85;8.02;;;;;;;6.84;100.00;98707.56;5070012;28;20032;-68
2023/12/30 04:12:13;;;;;;;11.93;7.70;;;;;;;7.13;100.00;98749.25;5090657;28;20438;-71
2023/12/30 04:14:39;;;;;;;13.65;7.90;;;;;;;7.05;100.00;98733.53;5079883;28;20055;-69
2023/12/30 04:17:04;;;;;;;10.45;7.30;;;;;;;7.08;100.00;98742.81;5090497;28;20595;-70
2023/12/30 04:19:32;;;;;;;11.65;7.85;;;;;;;7.17;100.00;98738.69;5074469;28;20039;-71
2023/12/30 04:21:57;;;;;;;12.50;8.43;;;;;;;7.12;100.00;98752.00;5072232;28;20047;-68
2023/12/30 04:24:22;;;;;;;12.77;7.80;;;;;;;7.06;100.00;98739.53;5075880;28;20684;-71
2023/12/30 04:26:49;;;;;;;11.80;7.55;;;;;;;6.86;100.00;98694.53;5088178;28;20034;-68
2023/12/30 04:29:19;;;;;;;14.55;7.60;;;;;;;7.13;100.00;98738.91;5074751;28;20030;-68
2023/12/30 04:31:45;;;;;;;12.68;7.75;;;;;;;7.25;99.88;98739.75;5074682;28;20024;-68
2023/12/30 04:34:10;;;;;;;11.18;7.43;;;;;;;7.11;100.00;98742.56;5072024;28;20053;-73
2023/12/30 04:36:35;;;;;;;11.93;7.68;;;;;;;7.09;100.00;98734.13;5077277;28;20115;-71
2023/12/30 04:39:03;;;;;;;11.93;7.28;;;;;;;6.91;100.00;98715.69;5082638;27;20157;-69
2023/12/30 04:41:29;;;;;;;10.20;7.28;;;;;;;7.11;100.00;98745.97;5077438;28;20111;-71
2023/12/30 04:43:55;;;;;;;12.15;7.50;;;;;;;7.18;100.00;98748.09;5085231;28;20039;-70
2023/12/30 04:46:20;;;;;;;11.30;7.32;;;;;;;7.21;100.00;98750.44;5074619;28;20023;-69
2023/12/30 04:48:46;;;;;;;11.85;7.30;;;;;;;6.88;100.00;98719.34;5080910;28;20032;-69
2023/12/30 04:51:13;;;;;;;12.82;6.93;;;;;;;7.04;100.00;98754.34;5076327;28;20032;-68
2023/12/30 04:53:39;;;;;;;10.18;6.93;;;;;;;6.95;100.00;98755.03;5089930;27;20254;-68
2023/12/30 04:56:06;;;;;;;12.05;6.90;;;;;;;6.91;100.00;98751.88;5088464;28;20489;-71
2023/12/30 04:58:32;;;;;;;12.18;7.40;;;;;;;6.85;100.00;98734.25;5084670;28;20116;-68
2023/12/30 05:00:57;;;;;;;11.77;7.03;;;;;;;7.03;100.00;98757.88;5086524;28;20475;-69
2023/12/30 05:03:25;;;;;;;11.38;7.50;;;;;;;6.87;100.00;98764.22;5093869;28;20031;-73
2023/12/30 05:05:51;;;;;;;11.63;7.50;;;;;;;6.87;100.00;98759.03;5069755;28;20442;-68
2023/12/30 05:08:19;;;;;;;11.95;7.65;;;;;;;6.85;100.00;98766.09;5077585;28;20114;-70
2023/12/30 05:10:47;;;;;;;11.27;7.57;;;;;;;6.85;100.00;98762.69;5091231;28;20161;-67
2023/12/30 05:13:12;;;;;;;11.75;7.43;;;;;;;6.84;100.00;98754.09;5091850;28;20031;-66
2023/12/30 05:15:37;;;;;;;11.32;7.78;;;;;;;6.74;100.00;98766.91;5080970;28;20046;-68
2023/12/30 05:18:04;;;;;;;11.70;7.75;;;;;;;6.91;100.00;98759.63;5085937;28;20096;-68
2023/12/30 05:20:29;;;;;;;10.30;6.88;;;;;;;7.09;100.00;98759.97;5078080;28;20439;-66
2023/12/30 05:22:59;;;;;;;14.02;7.72;;;;;;;6.91;100.00;98757.03;5073986;28;20028;-69
2023/12/30 05:25:24;;;;;;;11.55;7.25;;;;;;;6.87;100.00;98769.38;5068736;28;20017;-68
2023/12/30 05:27:49;;;;;;;11.73;7.90;;;;;;;6.90;100.00;98773.50;5090755;28;20038;-71
2023/12/30 05:30:15;;;;;;;14.75;8.02;;;;;;;6.88;100.00;98765.88;5070110;28;20232;-68
2023/12/30 05:32:45;;;;;;;12.60;7.90;;;;;;;6.78;100.00;98777.03;5094045;28;20590;-71
2023/12/30 05:35:13;;;;;;;12.50;8.13;;;;;;;6.82;100.00;98773.25;5070135;28;20062;-69
2023/12/30 05:37:38;;;;;;;12.10;7.28;;;;;;;6.71;100.00;98777.47;5076480;28;20918;-68
2023/12/30 05:40:08;;;;;;;12.10;7.63;;;;;;;6.67;100.00;98764.91;5070290;28;20024;-70
2023/12/30 05:42:33;;;;;;;12.02;8.25;;;;;;;6.42;100.00;98722.81;5091232;28;20058;-70
2023/12/30 05:44:59;;;;;;;11.90;8.00;;;;;;;6.62;100.00;98767.81;5074773;28;20593;-71
2023/12/30 05:47:26;;;;;;;11.38;7.35;;;;;;;6.80;100.00;98770.78;5088235;28;20043;-70
2023/12/30 05:49:52;;;;;;;12.95;7.90;;;;;;;6.60;100.00;98758.56;5074355;28;20038;-69
2023/12/30 05:52:17;;;;;;;11.70;7.45;;;;;;;6.62;100.00;98770.41;5067579;28;20031;-72
2023/12/30 05:54:48;;;;;;;11.75;7.20;;;;;;;6.63;100.00;98771.25;5090318;28;20410;-71
2023/12/30 05:57:19;;;;;;;12.05;7.32;;;;;;;6.68;100.00;98785.47;5082221;28;20036;-69
2023/12/30 05:59:44;;;;;;;10.68;7.50;;;;;;;6.34;100.00;98733.75;5090178;28;20038;-70
2023/12/30 06:02:12;;;;;;;11.38;7.82;;;;;;;6.59;100.00;98781.00;5082081;28;20028;-69
2023/12/30 06:04:41;;;;;;;11.20;7.72;;;;;;;6.51;100.00;98775.56;5086887;28;20034;-70
2023/12/30 06:07:07;;;;;;;11.90;7.60;;;;;;;6.54;100.00;98780.50;5068879;28;20027;-70
2023/12/30 06:09:32;;;;;;;11.07;7.10;;;;;;;6.61;100.00;98771.38;5075684;28;20441;-68
2023/12/30 06:12:00;;;;;;;11.75;7.47;;;;;;;6.39;100.00;98745.47;5088895;28;20019;-67
2023/12/30 06:14:26;;;;;;;11.30;7.72;;;;;;;6.67;100.00;98788.16;5085626;28;20695;-68
2023/12/30 06:16:51;;;;;;;12.23;7.60;;;;;;;6.35;100.00;98732.81;5083747;28;20654;-69
2023/12/30 06:19:18;;;;;;;12.52;7.70;;;;;;;6.62;100.00;98790.25;5087700;28;20055;-69
2023/12/30 06:21:44;;;;;;;11.43;7.32;;;;;;;6.80;100.00;98790.66;5087178;28;20042;-69
2023/12/30 06:24:09;;;;;;;12.43;7.32;;;;;;;6.81;100.00;98793.13;5082318;28;20598;-70
2023/12/30 06:26:45;;;;;;;11.50;7.60;;;;;;;6.80;100.00;98796.63;5077110;28;20027;-71
2023/12/30 06:29:13;;;;;;;11.40;7.60;;;;;;;6.76;100.00;98802.16;5071573;28;20035;-73
2023/12/30 06:31:44;;;;;;;12.27;8.00;;;;;;;6.70;100.00;98812.00;5075824;28;20023;-70
2023/12/30 06:34:14;;;;;;;12.63;8.02;;;;;;;6.58;100.00;98806.94;5064977;28;20027;-68
2023/12/30 06:36:45;;;;;;;12.80;7.88;;;;;;;6.52;100.00;98792.72;5088356;28;20028;-69
2023/12/30 06:39:12;;;;;;;11.88;8.23;;;;;;;6.64;100.00;98811.63;5075059;28;20749;-69
2023/12/30 06:41:38;;;;;;;11.50;7.97;;;;;;;6.54;100.00;98768.41;5090084;28;20032;-70
2023/12/30 06:44:03;;;;;;;12.63;8.70;;;;;;;6.87;100.00;98812.50;5078859;28;20031;-69
2023/12/30 06:46:33;;;;;;;11.95;7.80;;;;;;;6.87;100.00;98804.75;5068252;28;20657;-69
2023/12/30 06:48:59;;;;;;;11.20;7.20;;;;;;;6.82;100.00;98810.25;5074408;28;20031;-71
2023/12/30 06:51:27;;;;;;;10.77;7.55;;;;;;;6.74;100.00;98817.78;5072080;28;20467;-66
2023/12/30 06:53:53;;;;;;;13.10;7.60;;;;;;;6.70;100.00;98824.94;5072497;28;20097;-67
2023/12/30 06:56:18;;;;;;;11.85;8.18;;;;;;;6.51;100.00;98793.66;5074973;28;20032;-67
2023/12/30 06:58:45;;;;;;;12.52;7.75;;;;;;;6.69;100.00;98820.69;5068731;28;20131;-69
2023/12/30 07:01:13;;;;;;;12.23;7.68;;;;;;;6.25;100.00;98768.00;5067529;28;20037;-73
2023/12/30 07:03:39;;;;;;;11.48;7.60;;;;;;;6.31;100.00;98767.53;5069265;28;20066;-73
2023/12/30 07:06:07;;;;;;;11.23;7.43;;;;;;;6.67;100.00;98840.66;5088661;28;20184;-72
2023/12/30 07:08:37;;;;;;;11.75;7.65;;;;;;;6.48;100.00;98794.72;5075200;28;20024;-71
2023/12/30 07:11:03;;;;;;;10.60;6.85;;;;;;;6.68;100.00;98834.56;5086105;28;20035;-72
2023/12/30 07:13:31;;;;;;;11.18;6.75;;;;;;;6.72;100.00;98828.22;5086393;28;20028;-69
2023/12/30 07:15:56;;;;;;;11.90;7.05;;;;;;;6.77;100.00;98833.03;5084096;28;20043;-71
2023/12/30 07:18:24;;;;;;;10.05;6.57;;;;;;;6.67;100.00;98829.50;5088161;28;20113;-69
2023/12/30 07:20:49;;;;;;;9.73;6.60;;;;;;;6.50;100.00;98828.19;5081868;28;20490;-70
2023/12/30 07:23:17;;;;;;;10.27;6.60;;;;;;;6.45;100.00;98831.09;5090086;28;20052;-68
2023/12/30 07:25:47;;;;;;;11.15;7.25;;;;;;;6.38;100.00;98805.84;5070050;28;20027;-72
2023/12/30 07:28:13;;;;;;;10.68;6.55;;;;;;;6.56;100.00;98840.63;5072123;28;20594;-72
2023/12/30 07:30:38;;;;;;;9.88;6.70;;;;;;;6.71;100.00;98851.59;5085154;28;20020;-70
2023/12/30 07:33:06;;;;;;;11.55;6.40;;;;;;;6.65;100.00;98850.28;5080316;28;20705;-72
2023/12/30 07:35:34;;;;;;;11.35;6.57;;;;;;;6.67;100.00;98850.19;5085039;28;20025;-71
2023/12/30 07:37:59;;;;;;;10.73;6.82;;;;;;;6.58;100.00;98864.59;5066832;28;20032;-69
2023/12/30 07:40:27;;;;;;;11.10;7.18;;;;;;;6.48;100.00;98863.63;5084465;28;20741;-71
2023/12/30 07:42:52;;;;;;;10.07;6.68;;;;;;;6.51;100.00;98863.41;5069954;28;20130;-71
2023/12/30 07:45:20;;;;;;;10.65;7.10;;;;;;;6.17;100.00;98819.41;5090528;28;21051;-68
2023/12/30 07:47:46;;;;;;;11.48;7.50;;;;;;;6.52;100.00;98868.47;5084380;28;20020;-71
2023/12/30 07:50:11;;;;;;;11.32;6.47;;;;;;;6.70;100.00;98884.38;5083679;28;20023;-70
2023/12/30 07:52:37;;;;;;;11.15;6.78;;;;;;;6.61;100.00;98858.38;5073591;28;20466;-68
2023/12/30 07:55:02;;;;;;;9.13;6.28;;;;;;;6.72;100.00;98886.84;5089382;28;20027;-69
2023/12/30 07:57:28;;;;;;;9.30;6.32;;;;;;;6.72;100.00;98879.09;5086153;28;20089;-67
2023/12/30 07:59:55;;;;;;;9.13;5.93;;;;;;;6.42;100.00;98828.72;5071211;28;20042;-66
2023/12/30 08:02:20;;;;;;;11.00;6.63;;;;;;;6.38;100.00;98834.25;5071542;28;20042;-68
2023/12/30 08:04:48;;;;;;;10.90;6.80;;;;;;;6.76;100.00;98877.09;5070861;28;20027;-69
2023/12/30 08:07:16;;;;;;;10.65;6.32;;;;;;;6.76;100.00;98874.53;5080114;27;20097;-68
2023/12/30 08:09:45;;;;;;;9.82;6.07;;;;;;;6.71;100.00;98877.44;5074162;28;20027;-71
2023/12/30 08:12:12;;;;;;;9.68;6.25;;;;;;;6.64;100.00;98879.63;5086670;28;20035;-66
2023/12/30 08:14:38;;;;;;;10.60;6.65;;;;;;;6.63;100.00;98880.59;5089862;28;20127;-71
2023/12/30 08:17:03;;;;;;;10.93;6.38;;;;;;;6.51;100.00;98876.31;5068567;28;20032;-74
2023/12/30 08:19:31;;;;;;;8.88;5.88;;;;;;;6.49;100.00;98888.53;5087181;28;20784;-70
2023/12/30 08:21:57;;;;;;;10.55;5.90;;;;;;;6.30;100.00;98824.47;5085552;28;20066;-66
2023/12/30 08:24:28;;;;;;;10.77;6.13;;;;;;;6.74;100.00;98874.63;5084481;28;20052;-67
2023/12/30 08:26:55;;;;;;;9.65;5.82;;;;;;;6.78;100.00;98877.81;5071748;28;20115;-70
2023/12/30 08:29:21;;;;;;;9.13;5.57;;;;;;;6.39;100.00;98831.56;5086665;28;20737;-69
2023/12/30 08:31:46;;;;;;;9.90;5.72;;;;;;;6.73;100.00;98881.56;5071775;28;20028;-69
2023/12/30 08:34:12;;;;;;;9.55;5.82;;;;;;;6.72;100.00;98877.31;5087141;28;20060;-73
2023/12/30 08:36:38;;;;;;;12.50;5.93;;;;;;;6.32;100.00;98817.44;5086693;28;20050;-68
2023/12/30 08:39:03;;;;;;;10.27;6.15;;;;;;;6.66;100.00;98867.44;5080622;28;20706;-70
2023/12/30 08:41:33;;;;;;;9.43;5.80;;;;;;;6.72;100.00;98871.34;5070952;28;20096;-71
2023/12/30 08:43:59;;;;;;;9.93;5.75;;;;;;;6.51;100.00;98866.78;5082451;28;20024;-73
2023/12/30 08:46:24;;;;;;;8.77;5.78;;;;;;;6.15;100.00;98831.56;5089539;28;20616;-68
2023/12/30 08:48:50;;;;;;;11.95;6.75;;;;;;;6.35;100.00;98867.13;5081324;28;20346;-69
2023/12/30 08:51:15;;;;;;;12.73;8.55;;;;;;;6.48;100.00;98884.28;5080359;28;20016;-71
2023/12/30 08:53:43;;;;;;;14.15;9.75;;;;;;;6.56;100.00;98873.41;5083133;28;20053;-69
2023/12/30 08:56:08;;;;;;;15.25;8.18;;;;;;;6.27;100.00;98843.59;5087535;28;20125;-68
2023/12/30 08:58:36;;;;;;;12.13;7.88;;;;;;;6.40;100.00;98871.94;5068813;28;20381;-69
2023/12/30 09:01:02;;;;;;;11.65;7.72;;;;;;;6.46;100.00;98875.81;5087096;28;20300;-67
2023/12/30 09:03:27;;;;;;;11.25;6.68;;;;;;;6.31;100.00;98839.03;5083654;28;20032;-70
2023/12/30 09:05:53;;;;;;;9.80;6.07;;;;;;;6.72;100.00;98892.84;5078151;28;20109;-68
2023/12/30 09:08:18;;;;;;;8.82;6.25;;;;;;;6.72;100.00;98890.25;5082237;28;20028;-68
2023/12/30 09:10:46;;;;;;;9.05;6.68;;;;;;;6.75;100.00;98896.94;5069617;28;20521;-68
2023/12/30 09:13:14;;;;;;;10.35;6.45;;;;;;;6.82;100.00;98902.50;5077133;28;20787;-70
2023/12/30 09:15:39;;;;;;;9.07;6.28;;;;;;;6.84;100.00;98898.84;5070212;28;20020;-72
2023/12/30 09:18:07;;;;;;;11.23;6.25;;;;;;;6.97;100.00;98906.50;5091375;28;20656;-68
2023/12/30 09:20:32;;;;;;;10.77;6.45;;;;;;;7.02;100.00;98908.75;5089480;28;20427;-71
2023/12/30 09:22:58;;;;;;;9.85;6.10;;;;;;;6.96;100.00;98898.88;5085053;28;20136;-68
2023/12/30 09:25:24;;;;;;;8.98;6.30;;;;;;;6.95;100.00;98902.41;5085839;28;20034;-69
2023/12/30 09:27:52;;;;;;;9.65;6.10;;;;;;;6.97;100.00;98909.09;5071160;28;20015;-69
2023/12/30 09:30:17;;;;;;;9.88;6.35;;;;;;;6.72;100.00;98872.16;5071609;28;20096;-70
2023/12/30 09:32:45;;;;;;;9.77;5.90;;;;;;;7.06;100.00;98918.78;5082193;28;20640;-71
2023/12/30 09:35:10;;;;;;;8.93;5.90;;;;;;;7.03;100.00;98919.00;5074055;28;20051;-71
2023/12/30 09:37:36;;;;;;;9.80;6.57;;;;;;;7.08;100.00;98918.63;5074681;28;20471;-68
2023/12/30 09:40:02;;;;;;;9.05;6.03;;;;;;;7.09;100.00;98925.47;5083423;28;20032;-68
2023/12/30 09:42:30;;;;;;;12.00;6.53;;;;;;;6.98;100.00;98923.69;5084618;27;20143;-68
2023/12/30 09:44:55;;;;;;;10.85;6.88;;;;;;;6.97;100.00;98914.25;5093850;27;20077;-68
2023/12/30 09:47:25;;;;;;;10.20;6.82;;;;;;;7.15;100.00;98929.34;5087583;28;20031;-69
2023/12/30 09:49:50;;;;;;;9.57;6.28;;;;;;;6.85;100.00;98891.94;5086339;28;20410;-70
2023/12/30 09:52:15;;;;;;;9.52;6.53;;;;;;;6.99;100.00;98933.09;5073922;28;20020;-67
2023/12/30 09:54:43;;;;;;;11.00;7.32;;;;;;;6.92;100.00;98930.13;5070710;28;20035;-72
2023/12/30 09:57:11;;;;;;;10.18;6.22;;;;;;;7.08;100.00;98940.16;5086048;28;20526;-72
2023/12/30 09:59:40;;;;;;;10.35;6.45;;;;;;;7.10;100.00;98945.19;5082292;28;20043;-67
2023/12/30 10:02:09;;;;;;;10.85;7.18;;;;;;;7.07;100.00;98932.53;5088139;28;20024;-67
2023/12/30 10:04:35;;;;;;;10.93;7.20;;;;;;;6.78;100.00;98891.56;5070407;28;20156;-70
2023/12/30 10:07:01;;;;;;;11.20;7.05;;;;;;;6.96;100.00;98920.38;5072154;28;21128;-71
2023/12/30 10:09:29;;;;;;;9.77;6.80;;;;;;;6.95;100.00;98923.91;5057492;28;20028;-69
2023/12/30 10:11:55;;;;;;;11.43;7.05;;;;;;;6.88;100.00;98912.38;5055042;28;20539;-71
2023/12/30 10:14:21;;;;;;;11.05;7.40;;;;;;;6.82;100.00;98910.25;5076182;28;20114;-69
2023/12/30 10:16:46;;;;;;;13.10;8.43;;;;;;;6.84;100.00;98914.34;5072434;28;20085;-68
2023/12/30 10:19:15;;;;;;;11.10;6.93;;;;;;;7.01;100.00;98912.28;5073896;28;20036;-69
2023/12/30 10:21:43;;;;;;;11.32;6.97;;;;;;;7.03;100.00;98905.25;5060190;28;20870;-70
2023/12/30 10:24:08;;;;;;;9.75;6.80;;;;;;;7.05;100.00;98903.38;5051719;28;20043;-73
2023/12/30 10:26:37;;;;;;;10.25;7.13;;;;;;;7.12;100.00;98897.63;5069838;28;20391;-71
2023/12/30 10:29:05;;;;;;;10.63;7.03;;;;;;;7.12;100.00;98891.63;5073327;28;20067;-72
2023/12/30 10:31:32;;;;;;;9.38;6.32;;;;;;;7.00;100.00;98851.19;5053712;28;20039;-73
2023/12/30 10:34:01;;;;;;;11.93;7.28;;;;;;;7.40;99.00;98897.28;5057385;28;20071;-69
2023/12/30 10:36:27;;;;;;;10.10;6.85;;;;;;;7.40;99.87;98902.47;5060242;28;20020;-68
2023/12/30 10:38:56;;;;;;;9.40;6.85;;;;;;;7.43;98.97;98895.28;5053363;28;20806;-71
2023/12/30 10:41:21;;;;;;;11.85;6.72;;;;;;;7.62;98.60;98892.09;5074167;28;20529;-68
2023/12/30 10:43:47;;;;;;;9.88;6.18;;;;;;;7.64;98.11;98881.63;5071821;28;20149;-69
2023/12/30 10:46:16;;;;;;;10.15;6.60;;;;;;;7.57;97.61;98883.84;5063381;28;20048;-69
2023/12/30 10:48:58;;;;;;;9.32;6.13;;;;;;;7.75;98.32;98879.00;5052916;28;20099;-71
2023/12/30 10:51:28;;;;;;;11.23;6.53;;;;;;;7.81;96.75;98877.72;5079358;28;20016;-72
2023/12/30 10:54:02;;;;;;;;;;;;;;;7.89;96.24;98875.34;5090180;28;20115;-71
2023/12/30 10:56:29;;;;;;;9.95;6.40;;;;;;;7.82;96.23;98874.19;5087051;28;19972;-69
2023/12/30 10:59:03;;;;;;;9.05;6.00;;;;;;;7.93;95.05;98865.56;5070403;28;20039;-68
2023/12/30 11:01:33;;;;;;;10.15;6.05;;;;;;;7.69;94.13;98818.19;5071702;28;20036;-69
2023/12/30 11:04:01;;;;;;;11.27;5.70;;;;;;;7.77;93.75;98815.00;5081219;28;20024;-68
2023/12/30 11:06:37;;;;;;;8.27;4.65;;;;;;;8.12;93.32;98860.56;5071953;28;20618;-67
2023/12/30 11:09:09;;;;;;;10.55;4.68;;;;;;;8.05;92.61;98833.53;5071045;28;20054;-71
2023/12/30 11:11:39;;;;;;;8.02;5.38;;;;;;;8.22;93.42;98856.28;5082800;28;20100;-68
2023/12/30 11:14:13;;;;;;;8.88;4.50;;;;;;;8.35;93.07;98844.94;5085735;28;20036;-67
2023/12/30 11:16:40;;;;;;;9.50;4.82;;;;;;;8.31;93.49;98849.56;5086950;28;20085;-68
2023/12/30 11:19:06;;;;;;;8.55;4.93;;;;;;;8.22;93.54;98806.25;5083507;28;20035;-69
2023/12/30 11:21:43;;;;;;;7.78;4.70;;;;;;;8.49;93.79;98844.69;5086998;28;20791;-69
2023/12/30 11:24:10;;;;;;;7.50;4.03;;;;;;;8.44;91.51;98837.25;5071684;28;20044;-68
2023/12/30 11:26:40;;;;;;;7.40;4.57;;;;;;;8.41;90.51;98831.47;5070886;28;20082;-68
2023/12/30 11:29:09;;;;;;;7.50;4.45;;;;;;;8.43;90.34;98822.69;5064108;28;20035;-70